Time;durP1;ratioP1;P1;durP2;ratioP2;P2;SDS_P1;SDS_P2;PMS_P1;PMS_P2;Temp;Humidity;BMP_temperature;BMP_pressure;BME280_temperature;BME280_humidity;BME280_pressure;Samples;Min_cycle;Max_cycle;Signal;HPM_P1;HPM_P2
2022/04/09 00:01:16;;;;;;;7.47;3.07;;;4.40;1.00;;;;;;5092252;28;20208;-73
2022/04/09 00:03:43;;;;;;;9.60;3.83;;;4.40;1.00;;;;;;5091573;28;20565;-72
2022/04/09 00:06:10;;;;;;;12.10;2.60;;;4.40;1.00;;;;;;5090686;28;20656;-72
2022/04/09 00:08:37;;;;;;;6.23;3.67;;;4.40;1.00;;;;;;5089607;28;20227;-72
2022/04/09 00:11:05;;;;;;;7.50;2.90;;;4.50;1.00;;;;;;5089837;28;20298;-72
2022/04/09 00:13:32;;;;;;;7.37;2.37;;;4.40;1.00;;;;;;5090017;28;20270;-72
2022/04/09 00:15:59;;;;;;;8.30;2.70;;;4.50;1.00;;;;;;5089933;28;20251;-72
2022/04/09 00:18:27;;;;;;;6.53;2.43;;;4.50;1.00;;;;;;5089332;28;20692;-72
2022/04/09 00:20:55;;;;;;;11.40;2.50;;;4.50;1.00;;;;;;5090282;28;20285;-72
2022/04/09 00:23:23;;;;;;;11.90;2.50;;;4.40;1.00;;;;;;5089503;28;20203;-72
2022/04/09 00:25:50;;;;;;;4.97;1.83;;;4.50;1.00;;;;;;5072898;28;20190;-73
2022/04/09 00:28:19;;;;;;;7.63;2.13;;;4.50;1.00;;;;;;5091091;28;20201;-73
2022/04/09 00:30:46;;;;;;;5.90;1.80;;;4.40;1.00;;;;;;5088760;28;20484;-72
2022/04/09 00:33:13;;;;;;;9.07;2.30;;;4.40;1.00;;;;;;5087622;28;20197;-72
2022/04/09 00:35:40;;;;;;;7.93;2.50;;;4.40;1.00;;;;;;5089409;28;20197;-72
2022/04/09 00:38:07;;;;;;;7.43;2.10;;;4.40;1.00;;;;;;5090267;28;20202;-72
2022/04/09 00:40:33;;;;;;;6.43;2.20;;;4.50;1.00;;;;;;5087507;28;20255;-72
2022/04/09 00:43:00;;;;;;;9.77;3.03;;;4.50;1.00;;;;;;5090664;28;20197;-72
2022/04/09 00:45:29;;;;;;;6.80;2.40;;;4.50;1.00;;;;;;5090204;28;20193;-72
2022/04/09 00:47:56;;;;;;;7.80;2.50;;;4.50;1.00;;;;;;5089922;28;20198;-72
2022/04/09 00:50:23;;;;;;;6.83;2.37;;;4.50;1.00;;;;;;5089181;28;20271;-72
2022/04/09 00:52:55;;;;;;;10.70;2.70;;;4.50;1.00;;;;;;5090331;28;20209;-72
2022/04/09 00:56:12;;;;;;;4.57;2.43;;;4.50;1.00;;;;;;5090918;28;20243;-72
2022/04/09 00:58:15;;;;;;;9.10;2.40;;;4.50;1.00;;;;;;5090411;28;20193;-73
2022/04/09 01:00:44;;;;;;;8.03;1.93;;;4.50;1.00;;;;;;5089573;28;20204;-72
2022/04/09 01:03:16;;;;;;;6.20;2.63;;;4.60;1.00;;;;;;5090537;28;20251;-72
2022/04/09 01:05:44;;;;;;;9.03;2.97;;;4.50;1.00;;;;;;5090447;28;20636;-72
2022/04/09 01:08:11;;;;;;;6.70;2.20;;;4.40;1.00;;;;;;5089304;28;20333;-72
2022/04/09 01:10:38;;;;;;;4.77;2.63;;;4.40;1.00;;;;;;5089481;28;20209;-72
2022/04/09 01:13:07;;;;;;;9.87;2.43;;;4.40;1.00;;;;;;5089252;28;20233;-73
2022/04/09 01:15:34;;;;;;;6.43;2.33;;;4.40;1.00;;;;;;5090723;28;20910;-72
2022/04/09 01:18:02;;;;;;;8.00;2.23;;;4.40;1.00;;;;;;5088343;28;20553;-73
2022/04/09 01:20:29;;;;;;;6.93;2.13;;;4.30;1.00;;;;;;5090153;28;20654;-73
2022/04/09 01:22:58;;;;;;;6.80;2.60;;;4.30;1.00;;;;;;5090275;28;20206;-72
2022/04/09 01:25:25;;;;;;;8.73;2.60;;;4.40;1.00;;;;;;5088042;28;20201;-72
2022/04/09 01:27:52;;;;;;;10.50;2.40;;;4.40;1.00;;;;;;5089541;28;20649;-72
2022/04/09 01:30:20;;;;;;;9.90;2.60;;;4.50;1.00;;;;;;5089913;28;20289;-72
2022/04/09 01:32:47;;;;;;;10.17;2.80;;;4.60;1.00;;;;;;5089420;28;20209;-72
2022/04/09 01:35:15;;;;;;;11.20;2.80;;;4.60;1.00;;;;;;5089152;28;20260;-73
2022/04/09 01:37:42;;;;;;;9.70;2.40;;;4.70;1.00;;;;;;5089984;28;20594;-72
2022/04/09 01:40:11;;;;;;;8.17;2.77;;;4.70;1.00;;;;;;5089110;28;20297;-72
2022/04/09 01:42:38;;;;;;;9.03;2.37;;;4.80;1.00;;;;;;5090928;28;20194;-73
2022/04/09 01:45:06;;;;;;;7.53;1.93;;;4.80;1.00;;;;;;5092427;28;20206;-72
2022/04/09 01:47:34;;;;;;;9.77;3.50;;;4.80;1.00;;;;;;5091698;28;20202;-73
2022/04/09 01:50:01;;;;;;;5.70;2.47;;;4.90;1.00;;;;;;5092741;28;20691;-73
2022/04/09 01:52:27;;;;;;;9.37;2.73;;;4.90;1.00;;;;;;5091964;28;20225;-73
2022/04/09 01:54:54;;;;;;;6.43;2.70;;;4.90;1.00;;;;;;5093592;28;20225;-73
2022/04/09 01:57:23;;;;;;;9.00;2.53;;;4.80;1.00;;;;;;5092748;28;20255;-73
2022/04/09 01:59:50;;;;;;;8.90;2.43;;;4.80;1.00;;;;;;5093025;28;20214;-73
2022/04/09 02:02:17;;;;;;;8.70;2.60;;;4.80;1.00;;;;;;5092568;28;20205;-72
2022/04/09 02:04:44;;;;;;;9.87;2.90;;;4.70;1.00;;;;;;5093013;28;20632;-73
2022/04/09 02:07:11;;;;;;;8.60;2.77;;;4.80;1.00;;;;;;5092874;28;20603;-72
2022/04/09 02:09:38;;;;;;;8.60;2.80;;;4.80;1.00;;;;;;5091306;28;20535;-72
2022/04/09 02:12:06;;;;;;;12.07;3.07;;;4.80;1.00;;;;;;5092860;28;20629;-72
2022/04/09 02:14:34;;;;;;;5.67;2.27;;;4.80;1.00;;;;;;5092910;28;20205;-72
2022/04/09 02:17:01;;;;;;;7.60;2.63;;;4.90;1.00;;;;;;5092082;28;20190;-72
2022/04/09 02:19:28;;;;;;;9.43;2.47;;;4.90;1.00;;;;;;5091084;28;20205;-73
2022/04/09 02:21:55;;;;;;;8.93;3.00;;;5.00;1.00;;;;;;5092257;28;20205;-72
2022/04/09 02:24:22;;;;;;;8.33;2.60;;;4.90;1.00;;;;;;5091382;28;20194;-72
2022/04/09 02:26:49;;;;;;;6.03;2.83;;;5.00;1.00;;;;;;5092474;28;20260;-72
2022/04/09 02:29:16;;;;;;;6.17;2.70;;;5.00;1.00;;;;;;5091896;28;20251;-72
2022/04/09 02:31:44;;;;;;;9.43;3.30;;;5.00;1.00;;;;;;5091611;28;20275;-72
2022/04/09 02:34:11;;;;;;;8.27;3.20;;;5.00;1.00;;;;;;5092707;28;20193;-73
2022/04/09 02:36:38;;;;;;;10.30;2.90;;;5.00;1.00;;;;;;5090699;28;20193;-73
2022/04/09 02:39:06;;;;;;;7.90;2.97;;;5.00;1.00;;;;;;5085301;28;21106;-73
2022/04/09 02:41:33;;;;;;;11.37;3.10;;;5.00;1.00;;;;;;5085894;28;20266;-73
2022/04/09 02:44:00;;;;;;;6.00;2.63;;;5.00;1.00;;;;;;5087941;28;20243;-72
2022/04/09 02:46:27;;;;;;;6.57;2.40;;;5.00;1.00;;;;;;5099301;28;20243;-73
2022/04/09 02:48:55;;;;;;;10.33;2.97;;;5.00;1.00;;;;;;5089729;28;20198;-72
2022/04/09 02:51:22;;;;;;;7.63;2.77;;;4.90;1.00;;;;;;5091752;28;20259;-72
2022/04/09 02:53:50;;;;;;;11.97;2.53;;;4.80;1.00;;;;;;5090528;28;20267;-72
2022/04/09 02:56:17;;;;;;;10.77;2.77;;;4.80;1.00;;;;;;5092478;28;20229;-72
2022/04/09 02:58:44;;;;;;;5.93;2.60;;;4.80;1.00;;;;;;5090680;28;20240;-73
2022/04/09 03:01:11;;;;;;;12.87;2.97;;;4.90;1.00;;;;;;5092369;28;20202;-73
2022/04/09 03:03:38;;;;;;;10.53;2.50;;;4.90;1.00;;;;;;5091166;28;20342;-73
2022/04/09 03:06:07;;;;;;;9.80;3.63;;;4.90;1.00;;;;;;5091562;28;20268;-73
2022/04/09 03:08:34;;;;;;;9.40;2.60;;;4.90;1.00;;;;;;5090936;28;20612;-73
2022/04/09 03:11:01;;;;;;;8.70;2.90;;;4.90;1.00;;;;;;5090376;28;20248;-73
2022/04/09 03:13:28;;;;;;;9.30;2.47;;;4.90;1.00;;;;;;5092414;28;20694;-73
2022/04/09 03:15:55;;;;;;;6.67;2.37;;;4.90;1.00;;;;;;5092086;28;20194;-73
2022/04/09 03:18:22;;;;;;;6.97;3.00;;;4.90;1.00;;;;;;5091027;28;20197;-73
2022/04/09 03:20:49;;;;;;;6.77;3.00;;;4.90;1.00;;;;;;5090174;28;20196;-73
2022/04/09 03:23:17;;;;;;;6.77;2.97;;;4.80;1.00;;;;;;5091429;28;20190;-73
2022/04/09 03:25:44;;;;;;;6.47;2.90;;;4.80;1.00;;;;;;5090876;28;20223;-73
2022/04/09 03:28:12;;;;;;;7.10;3.13;;;4.90;1.00;;;;;;5091015;28;20327;-72
2022/04/09 03:30:39;;;;;;;6.70;2.53;;;4.90;1.00;;;;;;5090869;28;20209;-73
2022/04/09 03:33:06;;;;;;;9.50;2.53;;;4.80;1.00;;;;;;5090841;28;20626;-77
2022/04/09 03:35:34;;;;;;;11.07;3.27;;;4.90;1.00;;;;;;5091915;28;20209;-77
2022/04/09 03:38:02;;;;;;;5.87;2.40;;;4.90;1.00;;;;;;5092034;28;20220;-77
2022/04/09 03:40:30;;;;;;;8.23;2.60;;;4.90;1.00;;;;;;5090110;28;20623;-77
2022/04/09 03:42:57;;;;;;;10.63;2.50;;;4.80;1.00;;;;;;5090189;28;20254;-77
2022/04/09 03:45:24;;;;;;;7.80;2.57;;;4.70;1.00;;;;;;5092144;28;20205;-77
2022/04/09 03:47:51;;;;;;;7.37;3.10;;;4.60;1.00;;;;;;5091632;28;20545;-77
2022/04/09 03:50:18;;;;;;;7.40;3.43;;;4.60;1.00;;;;;;5088742;28;20870;-77
2022/04/09 03:52:45;;;;;;;4.53;2.20;;;4.50;1.00;;;;;;5090520;28;20225;-78
2022/04/09 03:55:14;;;;;;;7.47;2.63;;;4.50;1.00;;;;;;5091793;28;20251;-77
2022/04/09 03:57:43;;;;;;;9.20;3.00;;;4.60;1.00;;;;;;5090500;28;20204;-77
2022/04/09 04:00:13;;;;;;;9.60;2.57;;;4.60;1.00;;;;;;5090833;28;20202;-77
2022/04/09 04:02:41;;;;;;;8.60;2.90;;;4.60;1.00;;;;;;5091105;28;20292;-77
2022/04/09 04:05:08;;;;;;;12.67;3.03;;;4.60;1.00;;;;;;5090404;28;20606;-77
2022/04/09 04:07:36;;;;;;;9.57;3.00;;;4.70;1.00;;;;;;5072527;28;20252;-77
2022/04/09 04:10:04;;;;;;;7.60;2.80;;;4.80;1.00;;;;;;5086595;28;20801;-77
2022/04/09 04:12:31;;;;;;;6.40;2.77;;;4.70;1.00;;;;;;5089286;28;20229;-77
2022/04/09 04:14:59;;;;;;;5.30;2.60;;;4.60;1.00;;;;;;5090945;28;20243;-77
2022/04/09 04:17:26;;;;;;;10.37;2.63;;;4.70;1.00;;;;;;5090148;28;20607;-77
2022/04/09 04:19:53;;;;;;;6.33;2.73;;;4.70;1.00;;;;;;5089488;28;20202;-77
2022/04/09 04:22:20;;;;;;;7.40;3.20;;;4.70;1.00;;;;;;5090410;28;20206;-77
2022/04/09 04:24:48;;;;;;;9.17;3.13;;;4.80;1.00;;;;;;5090125;28;20414;-77
2022/04/09 04:27:15;;;;;;;7.93;3.37;;;4.90;1.00;;;;;;5089911;28;20206;-77
2022/04/09 04:29:42;;;;;;;7.83;2.83;;;4.90;1.00;;;;;;5089343;28;20585;-77
2022/04/09 04:32:11;;;;;;;11.60;3.23;;;4.90;1.00;;;;;;5090265;28;20266;-77
2022/04/09 04:34:38;;;;;;;5.73;2.63;;;4.90;1.00;;;;;;5089850;28;20582;-78
2022/04/09 04:37:05;;;;;;;9.57;3.30;;;4.90;1.00;;;;;;5089610;28;20251;-77
2022/04/09 04:39:32;;;;;;;8.40;3.17;;;4.90;1.00;;;;;;5088596;28;20210;-78
2022/04/09 04:41:59;;;;;;;8.27;3.40;;;4.90;1.00;;;;;;5090395;28;20255;-77
2022/04/09 04:44:26;;;;;;;8.43;2.80;;;4.90;1.00;;;;;;5090162;28;20247;-77
2022/04/09 04:46:53;;;;;;;12.17;2.90;;;4.80;1.00;;;;;;5090487;28;20202;-77
2022/04/09 04:49:21;;;;;;;9.10;3.00;;;4.90;1.00;;;;;;5089730;28;20202;-78
2022/04/09 04:51:48;;;;;;;9.30;2.97;;;4.90;1.00;;;;;;5089724;28;20244;-76
2022/04/09 04:54:15;;;;;;;6.23;2.50;;;4.80;1.00;;;;;;5089681;28;20249;-76
2022/04/09 04:56:43;;;;;;;8.03;3.00;;;4.80;1.00;;;;;;5090118;28;20205;-77
2022/04/09 04:59:10;;;;;;;8.83;3.10;;;4.80;1.00;;;;;;5089202;28;20204;-77
2022/04/09 05:01:40;;;;;;;7.63;2.70;;;4.70;1.00;;;;;;5089564;28;20198;-77
2022/04/09 05:04:07;;;;;;;5.50;2.50;;;4.70;1.00;;;;;;5090388;28;20216;-76
2022/04/09 05:06:35;;;;;;;8.47;2.37;;;4.70;1.00;;;;;;5090189;28;20254;-76
2022/04/09 05:09:02;;;;;;;7.07;4.30;;;4.80;1.00;;;;;;5089042;28;20625;-77
2022/04/09 05:11:29;;;;;;;4.47;2.90;;;4.90;1.00;;;;;;5089391;28;20233;-76
2022/04/09 05:13:56;;;;;;;8.87;2.97;;;5.20;1.00;;;;;;5090364;28;20240;-77
2022/04/09 05:16:23;;;;;;;6.40;3.00;;;5.20;1.00;;;;;;5086448;28;20231;-77
2022/04/09 05:18:50;;;;;;;8.53;3.37;;;5.10;1.00;;;;;;5092924;28;20202;-77
2022/04/09 05:21:17;;;;;;;9.10;3.17;;;5.10;1.00;;;;;;5093922;28;20640;-77
2022/04/09 05:23:46;;;;;;;8.27;2.80;;;5.10;1.00;;;;;;5093895;28;20209;-77
2022/04/09 05:26:14;;;;;;;9.20;3.63;;;5.10;1.00;;;;;;5093881;28;20193;-77
2022/04/09 05:28:41;;;;;;;8.83;3.00;;;5.20;1.00;;;;;;5091611;28;20197;-77
2022/04/09 05:31:11;;;;;;;7.93;2.70;;;5.30;1.00;;;;;;5092914;28;20194;-77
2022/04/09 05:33:38;;;;;;;7.83;2.40;;;5.40;1.00;;;;;;5093475;28;20758;-77
2022/04/09 05:36:06;;;;;;;10.00;3.27;;;5.40;1.00;;;;;;5093946;28;20294;-77
2022/04/09 05:38:32;;;;;;;5.23;2.30;;;5.30;1.00;;;;;;5090209;28;20209;-77
2022/04/09 05:41:01;;;;;;;6.73;2.60;;;5.40;99.90;;;;;;5092885;28;20209;-77
2022/04/09 05:43:29;;;;;;;7.67;3.13;;;5.40;99.90;;;;;;5093365;28;20232;-77
2022/04/09 05:45:57;;;;;;;9.73;3.20;;;5.30;1.00;;;;;;5090598;28;20198;-77
2022/04/09 05:48:24;;;;;;;9.67;3.17;;;5.30;1.00;;;;;;5088943;28;20564;-77
2022/04/09 05:50:51;;;;;;;9.70;3.73;;;5.50;1.00;;;;;;5093300;28;20247;-77
2022/04/09 05:53:18;;;;;;;7.13;3.10;;;5.90;99.90;;;;;;5093112;28;20271;-77
2022/04/09 05:55:45;;;;;;;6.67;3.10;;;6.00;1.00;;;;;;5093075;28;20210;-77
2022/04/09 05:58:14;;;;;;;9.23;2.80;;;5.60;1.00;;;;;;5093143;28;20230;-77
2022/04/09 06:00:41;;;;;;;6.67;2.83;;;6.00;1.00;;;;;;5090844;28;20563;-77
2022/04/09 06:03:08;;;;;;;8.83;4.50;;;6.00;1.00;;;;;;5092617;28;20255;-77
2022/04/09 06:05:35;;;;;;;14.80;5.80;;;6.00;1.00;;;;;;5089206;28;20633;-77
2022/04/09 06:08:02;;;;;;;10.23;3.33;;;6.00;1.00;;;;;;5092469;28;20206;-77
2022/04/09 06:10:29;;;;;;;8.90;3.53;;;6.20;1.00;;;;;;5091723;28;20206;-77
2022/04/09 06:12:56;;;;;;;10.83;3.40;;;7.00;1.00;;;;;;5092727;28;20217;-77
2022/04/09 06:15:25;;;;;;;7.40;3.10;;;6.80;1.00;;;;;;5093368;28;20410;-77
2022/04/09 06:17:52;;;;;;;9.17;3.43;;;6.50;1.00;;;;;;5092162;28;20277;-77
2022/04/09 06:20:19;;;;;;;7.57;3.40;;;7.30;1.00;;;;;;5091961;28;20205;-77
2022/04/09 06:22:46;;;;;;;8.57;2.80;;;7.10;99.90;;;;;;5092678;28;20202;-77
2022/04/09 06:25:13;;;;;;;9.60;3.13;;;7.10;1.00;;;;;;5092526;28;20194;-77
2022/04/09 06:27:41;;;;;;;7.43;3.20;;;6.70;99.90;;;;;;5092118;28;20259;-77
2022/04/09 06:30:09;;;;;;;10.60;3.23;;;6.60;1.00;;;;;;5091616;28;20206;-77
2022/04/09 06:32:38;;;;;;;9.37;2.57;;;6.40;1.00;;;;;;5091671;28;20726;-77
2022/04/09 06:35:06;;;;;;;14.67;3.27;;;6.40;1.00;;;;;;5091848;28;20206;-77
2022/04/09 06:37:38;;;;;;;9.50;3.33;;;6.30;1.00;;;;;;5092304;28;20189;-76
2022/04/09 06:40:07;;;;;;;5.43;2.47;;;6.20;99.90;;;;;;5090351;28;20236;-77
2022/04/09 06:42:34;;;;;;;4.67;3.00;;;6.20;99.90;;;;;;5091825;28;20382;-77
2022/04/09 06:45:02;;;;;;;8.23;3.03;;;6.20;99.90;;;;;;5092499;28;20278;-77
2022/04/09 06:47:29;;;;;;;8.97;2.90;;;6.30;1.00;;;;;;5091119;28;20639;-77
2022/04/09 06:49:58;;;;;;;10.27;3.10;;;6.20;1.00;;;;;;5091600;28;20664;-77
2022/04/09 06:52:25;;;;;;;8.17;2.80;;;6.30;1.00;;;;;;5090569;28;20672;-77
2022/04/09 06:54:55;;;;;;;13.27;4.03;;;6.40;99.90;;;;;;5091687;28;20198;-76
2022/04/09 06:57:22;;;;;;;5.77;2.90;;;6.60;1.00;;;;;;5091764;28;20206;-78
2022/04/09 06:59:49;;;;;;;6.83;3.30;;;6.80;99.90;;;;;;5091359;28;20202;-74
2022/04/09 07:02:16;;;;;;;11.60;4.07;;;6.60;1.00;;;;;;5091914;28;20275;-75
2022/04/09 07:04:44;;;;;;;13.53;3.83;;;6.70;99.90;;;;;;5091919;28;20233;-75
2022/04/09 07:07:13;;;;;;;7.67;2.93;;;6.50;99.90;;;;;;5091759;28;20286;-75
2022/04/09 07:09:40;;;;;;;4.87;2.43;;;6.40;99.90;;;;;;5090300;28;20197;-75
2022/04/09 07:12:07;;;;;;;5.50;2.93;;;6.40;1.00;;;;;;5091748;28;20290;-75
2022/04/09 07:14:34;;;;;;;10.37;3.17;;;6.40;1.00;;;;;;5092038;28;20679;-75
2022/04/09 07:17:03;;;;;;;6.57;2.73;;;6.40;99.90;;;;;;5091763;28;20208;-75
2022/04/09 07:19:30;;;;;;;7.43;2.40;;;6.50;99.90;;;;;;5090207;28;20210;-75
2022/04/09 07:21:58;;;;;;;6.53;2.63;;;6.60;99.90;;;;;;5088841;28;20202;-75
2022/04/09 07:24:27;;;;;;;13.37;3.73;;;6.90;99.90;;;;;;5087412;28;20208;-75
2022/04/09 07:26:54;;;;;;;28.07;7.93;;;7.40;1.00;;;;;;5090303;28;20232;-74
2022/04/09 07:29:21;;;;;;;6.07;2.77;;;7.50;1.00;;;;;;5090634;28;20198;-75
2022/04/09 07:31:48;;;;;;;8.03;2.90;;;7.30;1.00;;;;;;5089707;28;20645;-75
2022/04/09 07:34:15;;;;;;;6.03;3.00;;;7.40;1.00;;;;;;5090293;28;20627;-74
2022/04/09 07:36:42;;;;;;;5.03;2.10;;;7.30;99.90;;;;;;5091280;28;20198;-74
2022/04/09 07:39:09;;;;;;;6.27;2.60;;;7.10;99.90;;;;;;5089300;28;20233;-75
2022/04/09 07:41:37;;;;;;;7.07;2.77;;;7.30;1.00;;;;;;5090895;28;20217;-75
2022/04/09 07:44:04;;;;;;;5.27;2.60;;;7.50;1.00;;;;;;5091155;28;20227;-75
2022/04/09 07:46:31;;;;;;;8.90;2.87;;;7.30;99.90;;;;;;5090875;28;20206;-74
2022/04/09 07:48:58;;;;;;;7.50;2.67;;;7.20;99.90;;;;;;5090204;28;20233;-74
2022/04/09 07:51:25;;;;;;;6.73;2.87;;;7.20;1.00;;;;;;5091084;28;20630;-75
2022/04/09 07:53:52;;;;;;;8.47;2.40;;;7.10;99.90;;;;;;5090591;28;20275;-75
2022/04/09 07:56:19;;;;;;;8.93;2.40;;;7.20;99.90;;;;;;5091461;28;20721;-74
2022/04/09 07:58:48;;;;;;;5.60;2.40;;;7.30;99.90;;;;;;5089927;28;20197;-74
2022/04/09 08:01:15;;;;;;;10.47;2.50;;;7.30;1.00;;;;;;5090572;28;20648;-75
2022/04/09 08:03:42;;;;;;;7.17;2.40;;;7.40;99.90;;;;;;5090770;28;20632;-74
2022/04/09 08:06:09;;;;;;;7.67;2.33;;;7.20;99.90;;;;;;5091043;28;20553;-74
2022/04/09 08:08:36;;;;;;;6.03;2.23;;;7.10;1.00;;;;;;5089593;28;20604;-74
2022/04/09 08:11:03;;;;;;;5.10;1.90;;;7.00;1.00;;;;;;5090583;28;20205;-74
2022/04/09 08:13:30;;;;;;;9.83;2.13;;;7.50;1.00;;;;;;5090326;28;20221;-74
2022/04/09 08:15:58;;;;;;;7.93;2.10;;;7.50;1.00;;;;;;5090693;28;20194;-74
2022/04/09 08:18:25;;;;;;;6.33;2.57;;;7.60;1.00;;;;;;5089705;28;20197;-75
2022/04/09 08:20:52;;;;;;;8.10;2.50;;;7.60;1.00;;;;;;5089995;28;20725;-74
2022/04/09 08:23:19;;;;;;;4.30;2.00;;;7.60;99.90;;;;;;5090078;28;20572;-75
2022/04/09 08:25:48;;;;;;;5.43;2.07;;;7.50;1.00;;;;;;5090658;28;20202;-75
2022/04/09 08:28:17;;;;;;;5.00;2.30;;;7.70;99.90;;;;;;5090568;28;20288;-74
2022/04/09 08:30:44;;;;;;;6.20;2.27;;;7.80;1.00;;;;;;5089054;28;20664;-75
2022/04/09 08:33:15;;;;;;;7.80;2.17;;;7.70;99.90;;;;;;5090304;28;20270;-75
2022/04/09 08:35:43;;;;;;;13.37;3.40;;;7.70;1.00;;;;;;5090974;28;20571;-75
2022/04/09 08:38:10;;;;;;;9.07;2.20;;;7.60;1.00;;;;;;5090520;28;20220;-75
2022/04/09 08:40:38;;;;;;;5.67;1.90;;;7.80;99.90;;;;;;5089213;28;20259;-75
2022/04/09 08:43:05;;;;;;;8.70;1.97;;;8.00;99.90;;;;;;5090332;28;20254;-74
2022/04/09 08:45:36;;;;;;;6.37;1.80;;;8.10;1.00;;;;;;5090017;28;20212;-74
2022/04/09 08:48:06;;;;;;;3.43;1.57;;;8.40;1.00;;;;;;5089950;28;20485;-73
2022/04/09 08:50:35;;;;;;;3.93;1.60;;;8.60;99.90;;;;;;5090328;28;20713;-74
2022/04/09 08:53:06;;;;;;;4.27;1.70;;;8.80;1.00;;;;;;5094346;28;20231;-75
2022/04/09 08:55:34;;;;;;;3.47;1.67;;;8.70;1.00;;;;;;5094669;28;20769;-74
2022/04/09 08:58:01;;;;;;;5.00;1.67;;;8.70;10.50;;;;;;5091304;28;20193;-74
2022/04/09 09:00:28;;;;;;;4.17;1.80;;;8.60;1.00;;;;;;5093518;28;20247;-74
2022/04/09 09:02:56;;;;;;;5.17;1.90;;;8.50;55.30;;;;;;5094486;28;20697;-74
2022/04/09 09:05:31;;;;;;;8.17;2.03;;;8.40;1.00;;;;;;5094629;28;20709;-74
2022/04/09 09:08:00;;;;;;;3.27;1.80;;;8.10;1.00;;;;;;5087904;28;20549;-75
2022/04/09 09:10:27;;;;;;;7.00;1.70;;;8.00;1.00;;;;;;5093238;28;20212;-74
2022/04/09 09:12:59;;;;;;;5.23;1.90;;;8.10;99.90;;;;;;5087957;28;20221;-74
2022/04/09 09:15:26;;;;;;;3.80;1.30;;;8.90;1.00;;;;;;5093558;28;20202;-74
2022/04/09 09:17:57;;;;;;;7.00;2.17;;;9.10;99.90;;;;;;5092044;28;20254;-74
2022/04/09 09:20:24;;;;;;;5.40;1.60;;;9.00;99.90;;;;;;5093478;28;20212;-74
2022/04/09 09:22:52;;;;;;;5.77;2.33;;;8.50;99.90;;;;;;5092153;28;20641;-74
2022/04/09 09:25:21;;;;;;;5.63;2.77;;;8.60;1.00;;;;;;5092014;28;20721;-74
2022/04/09 09:28:00;;;;;;;6.20;2.83;;;8.50;99.90;;;;;;5094050;28;20255;-74
2022/04/09 09:30:27;;;;;;;9.97;3.60;;;8.30;99.90;;;;;;5091904;28;20201;-75
2022/04/09 09:33:07;;;;;;;9.20;3.50;;;8.70;99.90;;;;;;5092529;28;20244;-74
2022/04/09 09:35:52;;;;;;;6.13;2.63;;;9.30;99.70;;;;;;5093808;28;20201;-74
2022/04/09 09:38:20;;;;;;;7.03;1.90;;;9.50;1.00;;;;;;5092227;28;20202;-74
2022/04/09 09:40:49;;;;;;;3.33;1.63;;;9.50;1.00;;;;;;5092515;28;20210;-74
2022/04/09 09:43:17;;;;;;;5.43;1.80;;;9.60;1.00;;;;;;5085805;28;20235;-73
2022/04/09 09:45:45;;;;;;;2.87;1.50;;;9.40;1.00;;;;;;5093756;28;20210;-74
2022/04/09 09:48:25;;;;;;;4.80;1.53;;;9.70;99.90;;;;;;5092861;28;20197;-74
2022/04/09 09:50:54;;;;;;;5.63;1.47;;;9.60;99.90;;;;;;5093334;28;20270;-74
2022/04/09 09:53:28;;;;;;;3.07;1.60;;;9.50;99.90;;;;;;5093333;28;20261;-74
2022/04/09 09:55:58;;;;;;;6.10;2.10;;;9.70;99.90;;;;;;5093998;28;20197;-74
2022/04/09 09:58:27;;;;;;;7.57;1.80;;;10.30;99.90;;;;;;5091020;28;20208;-74
2022/04/09 10:00:56;;;;;;;2.73;1.60;;;9.90;99.90;;;;;;5092047;28;20611;-74
2022/04/09 10:03:23;;;;;;;4.07;1.80;;;9.60;99.90;;;;;;5092448;28;20229;-74
2022/04/09 10:05:51;;;;;;;4.50;1.47;;;9.50;99.90;;;;;;5092553;28;20210;-74
2022/04/09 10:08:19;;;;;;;5.47;2.00;;;9.60;99.90;;;;;;5092458;28;20198;-74
2022/04/09 10:10:48;;;;;;;3.37;1.20;;;10.20;28.30;;;;;;5094634;28;20198;-74
2022/04/09 10:13:21;;;;;;;4.57;1.20;;;10.50;1.00;;;;;;5090431;28;20226;-74
2022/04/09 10:15:51;;;;;;;4.60;1.33;;;10.70;1.00;;;;;;5093520;28;20252;-74
2022/04/09 10:18:23;;;;;;;3.97;1.50;;;10.20;59.00;;;;;;5092054;28;20742;-73
2022/04/09 10:20:56;;;;;;;5.70;1.73;;;9.40;1.00;;;;;;5092649;28;20648;-74
2022/04/09 10:23:23;;;;;;;4.07;1.80;;;8.70;1.00;;;;;;5093809;28;20193;-73
2022/04/09 10:25:52;;;;;;;3.90;1.70;;;8.20;1.00;;;;;;5092342;28;20251;-73
2022/04/09 10:28:32;;;;;;;3.37;1.37;;;8.90;1.00;;;;;;5092483;28;20198;-75
2022/04/09 10:30:59;;;;;;;3.47;1.60;;;9.20;1.00;;;;;;5089912;28;20304;-74
2022/04/09 10:33:30;;;;;;;2.43;1.20;;;9.30;1.00;;;;;;5092821;28;20702;-74
2022/04/09 10:36:02;;;;;;;1.93;0.80;;;9.70;1.00;;;;;;5090990;28;20208;-73
2022/04/09 10:38:29;;;;;;;3.87;1.67;;;9.80;1.00;;;;;;5092181;28;20281;-74
2022/04/09 10:41:28;;;;;;;5.30;1.57;;;10.10;1.00;;;;;;5092847;28;20572;-74
2022/04/09 10:44:00;;;;;;;6.07;2.70;;;10.70;1.00;;;;;;5092453;28;20404;-74
2022/04/09 10:46:33;;;;;;;5.70;3.57;;;10.30;1.00;;;;;;5089764;28;20202;-74
2022/04/09 10:49:22;;;;;;;4.07;2.10;;;10.40;1.00;;;;;;5088097;28;20213;-74
2022/04/09 10:52:14;;;;;;;4.60;1.90;;;10.60;1.00;;;;;;5091779;28;20202;-73
2022/04/09 10:54:44;;;;;;;5.13;2.80;;;10.40;1.00;;;;;;5091776;28;20582;-74
2022/04/09 10:57:22;;;;;;;2.33;1.80;;;10.80;1.00;;;;;;5090161;28;20634;-74
2022/04/09 10:59:59;;;;;;;4.03;2.17;;;10.40;1.00;;;;;;5091413;28;20202;-74
2022/04/09 11:02:31;;;;;;;3.60;2.50;;;10.50;1.00;;;;;;5091997;28;20296;-74
2022/04/09 11:05:22;;;;;;;7.73;2.80;;;10.90;1.00;;;;;;5089106;28;20523;-74
2022/04/09 11:08:09;;;;;;;3.60;1.70;;;10.80;1.00;;;;;;5091335;28;20648;-75
2022/04/09 11:10:36;;;;;;;3.67;2.03;;;11.30;99.90;;;;;;5089672;28;20206;-74
2022/04/09 11:13:10;;;;;;;2.90;1.80;;;11.60;1.00;;;;;;5091527;28;20206;-74
2022/04/09 11:15:39;;;;;;;3.27;1.73;;;11.30;90.10;;;;;;5091343;28;20206;-74
2022/04/09 11:18:07;;;;;;;4.67;2.27;;;10.50;99.90;;;;;;5092300;28;20652;-74
2022/04/09 11:20:35;;;;;;;5.07;2.73;;;10.20;1.00;;;;;;5091180;28;20209;-74
2022/04/09 11:23:12;;;;;;;5.60;2.47;;;9.50;1.00;;;;;;5091731;28;20243;-75
2022/04/09 11:25:42;;;;;;;3.20;1.70;;;9.30;1.00;;;;;;5092100;28;20241;-74
2022/04/09 11:28:13;;;;;;;0.87;0.70;;;9.00;1.00;;;;;;5091581;28;20205;-74
2022/04/09 11:30:52;;;;;;;0.67;0.30;;;7.40;1.00;;;;;;5090890;28;20241;-74
2022/04/09 11:33:19;;;;;;;1.10;0.73;;;7.00;1.00;;;;;;5088346;28;20284;-74
2022/04/09 11:35:47;;;;;;;5.00;2.10;;;7.20;1.00;;;;;;5091304;28;20286;-74
2022/04/09 11:38:15;;;;;;;7.50;3.37;;;7.30;99.90;;;;;;5091899;28;20233;-74
2022/04/09 11:40:46;;;;;;;3.87;1.50;;;7.50;1.00;;;;;;5091220;28;20649;-74
2022/04/09 11:43:14;;;;;;;1.20;0.90;;;7.40;1.00;;;;;;5091550;28;20202;-74
2022/04/09 11:45:50;;;;;;;1.33;0.90;;;7.30;1.00;;;;;;5159321;27;20984;-73
2022/04/09 11:48:18;;;;;;;2.17;1.00;;;7.30;1.00;;;;;;5107197;28;20193;-74
2022/04/09 11:50:46;;;;;;;1.57;0.83;;;7.50;99.90;;;;;;5101741;28;20662;-74
2022/04/09 11:53:14;;;;;;;1.40;0.90;;;7.70;99.90;;;;;;5106768;28;20201;-74
2022/04/09 11:55:42;;;;;;;1.30;0.77;;;8.10;1.00;;;;;;5100845;28;20201;-74
2022/04/09 11:58:11;;;;;;;1.93;1.00;;;8.80;1.00;;;;;;5096325;28;20229;-73
2022/04/09 12:00:42;;;;;;;2.00;1.20;;;9.30;99.90;;;;;;5102413;28;20236;-73
2022/04/09 12:03:11;;;;;;;3.37;1.40;;;9.60;1.00;;;;;;5102471;28;20201;-74
2022/04/09 12:05:41;;;;;;;6.70;3.23;;;10.10;1.00;;;;;;5103760;28;20221;-74
2022/04/09 12:08:12;;;;;;;3.10;1.70;;;10.60;99.90;;;;;;5104525;28;20205;-74
2022/04/09 12:10:52;;;;;;;3.27;1.47;;;10.80;1.00;;;;;;5100180;28;20244;-74
2022/04/09 12:13:25;;;;;;;4.17;1.30;;;10.30;1.00;;;;;;5100465;28;20663;-74
2022/04/09 12:15:53;;;;;;;3.90;1.20;;;10.10;1.00;;;;;;5103278;28;20251;-74
2022/04/09 12:18:28;;;;;;;3.50;1.53;;;9.20;1.00;;;;;;5108353;28;20201;-73
2022/04/09 12:20:56;;;;;;;0.93;0.60;;;8.00;1.00;;;;;;5097424;28;20602;-74
2022/04/09 12:23:29;;;;;;;3.00;0.80;;;7.30;1.00;;;;;;5100530;28;20197;-74
2022/04/09 12:25:57;;;;;;;2.67;1.20;;;7.10;1.00;;;;;;5106581;28;20209;-74
2022/04/09 12:28:28;;;;;;;3.43;1.40;;;7.20;1.00;;;;;;5096729;28;20210;-74
2022/04/09 12:30:56;;;;;;;4.17;1.63;;;7.60;99.90;;;;;;5102745;28;20225;-74
2022/04/09 12:33:24;;;;;;;1.70;0.77;;;8.10;1.00;;;;;;5105136;28;20651;-74
2022/04/09 12:36:05;;;;;;;1.90;0.43;;;8.70;99.90;;;;;;5105645;28;20212;-74
2022/04/09 12:38:34;;;;;;;0.63;0.40;;;7.70;1.00;;;;;;5100846;28;20263;-74
2022/04/09 12:41:04;;;;;;;1.20;0.50;;;6.70;1.00;;;;;;5107149;28;20201;-75
2022/04/09 12:43:35;;;;;;;2.50;0.67;;;6.30;1.00;;;;;;5105418;28;20209;-75
2022/04/09 12:46:05;;;;;;;3.40;0.87;;;6.40;1.00;;;;;;5097860;28;20218;-75
2022/04/09 12:48:40;;;;;;;0.97;0.67;;;6.70;1.00;;;;;;5103046;28;20655;-75
2022/04/09 12:51:09;;;;;;;1.27;0.93;;;7.20;1.00;;;;;;5100472;28;20197;-75
2022/04/09 12:53:36;;;;;;;5.23;0.93;;;7.80;1.00;;;;;;5102088;28;20200;-74
2022/04/09 12:56:07;;;;;;;1.83;0.87;;;7.90;99.90;;;;;;5091966;28;20198;-75
2022/04/09 12:58:34;;;;;;;2.07;1.10;;;8.20;1.00;;;;;;5090708;28;20204;-75
2022/04/09 13:01:02;;;;;;;2.53;1.00;;;8.70;1.00;;;;;;5087478;28;20206;-74
2022/04/09 13:03:29;;;;;;;1.33;1.10;;;8.70;1.00;;;;;;5086569;28;20205;-74
2022/04/09 13:05:57;;;;;;;3.40;1.20;;;9.00;1.00;;;;;;5093188;28;20647;-74
2022/04/09 13:08:26;;;;;;;1.90;1.10;;;9.30;1.00;;;;;;5089848;28;20224;-74
2022/04/09 13:10:53;;;;;;;3.63;1.10;;;9.60;99.90;;;;;;5090629;28;20281;-74